• location
  • image
mod_vvisit_countermod_vvisit_countermod_vvisit_countermod_vvisit_countermod_vvisit_countermod_vvisit_countermod_vvisit_counter
mod_vvisit_counterToday265
mod_vvisit_counterYesterday479
mod_vvisit_counterThis week265
mod_vvisit_counterLast week4472
mod_vvisit_counterThis month6093
mod_vvisit_counterLast month17680
mod_vvisit_counterAll days1032005

We have: 13 guests, 3 bots online
Your IP: 54.226.36.60
 , 
Today: Dec 10, 2018
Airport / Corruption prevention

Corruption prevention

Information is available in Lithuanian.

Today

Monday, 10 December 2018

Aviation Weather Forecast

[source: ADDS]
METAR
EYSA 100450Z 22007KT 1600 BR OVC002 03/03 Q0992 R14L/29//95 AMB TEMPO OVC003 YLO2 =
TAF EYSA 100502Z 1006/1015 20006KT 1500 BR OVC002 TEMPO 1006/1009 0800 FG BECMG 1010/1012 3000 TEMPO 1012/1015 5000 RA OVC005
TAF
TAF EYSA 100502Z 1006/1015 20006KT 1500 BR OVC002 TEMPO 1006/1009 0800 FG BECMG 1010/1012 3000 TEMPO 1012/1015 5000 RA OVC005 =
SR / SS: 06:41 / 14:00 UTC (EYSA 2018-12-10)

Search

Who's Online

We have 16 guests online

tic logo en